Time;durP1;ratioP1;P1;durP2;ratioP2;P2;SDS_P1;SDS_P2;PMS_P1;PMS_P2;Temp;Humidity;BMP_temperature;BMP_pressure;BME280_temperature;BME280_humidity;BME280_pressure;Samples;Min_cycle;Max_cycle;Signal;HPM_P1;HPM_P2
2022/01/14 00:01:54;;;;;;;0.40;0.30;;;-1.70;99.90;;;;;;5095543;28;20388;-69
2022/01/14 00:04:20;;;;;;;1.40;0.70;;;-1.60;99.90;;;;;;5123827;27;20391;-69
2022/01/14 00:06:47;;;;;;;0.50;0.50;;;-1.70;99.90;;;;;;5114901;27;20394;-67
2022/01/14 00:09:14;;;;;;;0.40;0.20;;;-1.60;99.90;;;;;;5134508;27;20462;-68
2022/01/14 00:11:49;;;;;;;1.60;1.50;;;-1.60;99.90;;;;;;5133544;27;20382;-69
2022/01/14 00:16:42;;;;;;;0.40;0.40;;;-1.50;99.90;;;;;;5133629;27;20381;-70
2022/01/14 00:19:07;;;;;;;0.40;0.40;;;-1.50;99.90;;;;;;5131413;27;20363;-71
2022/01/14 00:21:35;;;;;;;0.40;0.20;;;-1.60;99.90;;;;;;5133660;27;20887;-70
2022/01/14 00:24:11;;;;;;;1.30;0.60;;;-1.50;99.90;;;;;;5133802;27;20390;-70
2022/01/14 00:31:42;;;;;;;0.40;0.30;;;-1.30;99.90;;;;;;5133791;27;20367;-70
2022/01/14 00:32:41;;;;;;;0.40;0.30;;;-1.40;99.90;;;;;;5133643;27;20869;-70
2022/01/14 00:35:04;;;;;;;0.40;0.40;;;-1.50;99.90;;;;;;5132080;27;20766;-70
2022/01/14 00:37:30;;;;;;;1.20;0.60;;;-1.30;99.90;;;;;;5134205;27;20414;-70
2022/01/14 00:39:55;;;;;;;0.70;0.50;;;-1.50;99.90;;;;;;5129826;27;20379;-71
2022/01/14 00:42:21;;;;;;;0.40;0.20;;;-1.30;99.90;;;;;;5133577;27;20367;-70
2022/01/14 00:44:48;;;;;;;0.50;0.50;;;-1.20;99.90;;;;;;5132209;27;20379;-71
2022/01/14 00:47:13;;;;;;;0.60;0.50;;;-1.10;99.90;;;;;;5132265;27;20381;-71
2022/01/14 00:49:39;;;;;;;0.40;0.30;;;-1.20;99.90;;;;;;5133912;27;20370;-71
2022/01/14 00:52:05;;;;;;;0.40;0.40;;;-1.40;99.90;;;;;;5131898;27;20375;-72
2022/01/14 00:54:31;;;;;;;0.40;0.25;;;-1.30;99.90;;;;;;5133305;27;20490;-71
2022/01/14 00:57:15;;;;;;;1.50;1.40;;;-1.30;99.90;;;;;;5132380;27;20390;-71
2022/01/14 00:59:41;;;;;;;0.40;0.20;;;-1.40;99.90;;;;;;5133492;27;20405;-70
2022/01/14 01:02:07;;;;;;;0.40;0.20;;;-1.30;99.90;;;;;;5132598;27;20424;-71
2022/01/14 01:04:36;;;;;;;0.40;0.30;;;-1.40;99.90;;;;;;5133813;27;20379;-70
2022/01/14 01:07:07;;;;;;;0.40;0.22;;;-1.40;99.90;;;;;;5133035;27;20418;-70
2022/01/14 01:09:34;;;;;;;0.60;0.50;;;-1.40;99.90;;;;;;5133260;27;20458;-70
2022/01/14 01:14:42;;;;;;;0.80;0.80;;;-1.10;99.90;;;;;;5132698;27;20471;-70
2022/01/14 01:17:08;;;;;;;0.40;0.30;;;-1.30;99.90;;;;;;5133514;27;20405;-70
2022/01/14 01:19:34;;;;;;;0.40;0.20;;;-1.20;99.90;;;;;;5132154;27;20688;-71
2022/01/14 01:22:00;;;;;;;0.52;0.52;;;-1.40;99.90;;;;;;5132887;27;20406;-70
2022/01/14 01:24:26;;;;;;;0.80;0.70;;;-1.30;99.90;;;;;;5132299;27;20406;-70
2022/01/14 01:26:52;;;;;;;0.55;0.52;;;-1.30;99.90;;;;;;5114472;27;20910;-70
2022/01/14 01:29:43;;;;;;;0.40;0.20;;;-1.40;99.90;;;;;;5132270;27;20370;-71
2022/01/14 01:32:09;;;;;;;0.40;0.30;;;-1.50;99.90;;;;;;5132721;27;20425;-70
2022/01/14 01:34:35;;;;;;;0.40;0.20;;;-1.60;99.90;;;;;;5131992;27;20395;-70
2022/01/14 01:37:02;;;;;;;0.50;0.50;;;-1.60;99.90;;;;;;5114438;27;20410;-70
2022/01/14 01:39:30;;;;;;;0.40;0.20;;;-1.50;99.90;;;;;;5131889;27;20463;-71
2022/01/14 01:42:00;;;;;;;0.40;0.20;;;-1.50;99.90;;;;;;5132591;27;20406;-70
2022/01/14 01:44:27;;;;;;;0.40;0.30;;;-1.50;99.90;;;;;;5123257;27;20393;-70
2022/01/14 01:46:53;;;;;;;0.70;0.60;;;-1.50;99.90;;;;;;5111565;28;20380;-70
2022/01/14 01:49:25;;;;;;;1.20;0.82;;;-1.60;99.90;;;;;;5112148;28;20385;-70
2022/01/14 01:51:52;;;;;;;0.40;0.20;;;-1.80;99.90;;;;;;5111294;28;20400;-70
2022/01/14 01:54:19;;;;;;;0.60;0.60;;;-1.80;99.90;;;;;;5111883;28;20392;-70
2022/01/14 01:56:46;;;;;;;0.40;0.20;;;-1.70;99.90;;;;;;5111081;28;20423;-70
2022/01/14 01:59:12;;;;;;;0.47;0.28;;;-1.60;99.90;;;;;;5111453;28;20377;-70
2022/01/14 02:01:39;;;;;;;0.40;0.20;;;-1.80;99.90;;;;;;5111731;28;20398;-71
2022/01/14 02:04:05;;;;;;;0.50;0.50;;;-1.80;99.90;;;;;;5111480;28;20467;-70
2022/01/14 02:06:32;;;;;;;2.70;1.10;;;-1.80;99.90;;;;;;5111602;28;20515;-70
2022/01/14 02:08:57;;;;;;;0.40;0.30;;;-1.80;99.90;;;;;;5110964;28;20400;-70
2022/01/14 02:11:24;;;;;;;0.40;0.40;;;-1.80;99.90;;;;;;5111516;28;20798;-70
2022/01/14 02:13:51;;;;;;;0.40;0.30;;;-1.70;99.90;;;;;;5092600;28;20408;-72
2022/01/14 02:16:58;;;;;;;0.40;0.30;;;-1.80;99.90;;;;;;5111430;28;20403;-70
2022/01/14 02:19:28;;;;;;;0.40;0.20;;;-1.80;99.90;;;;;;5111030;28;20389;-70
2022/01/14 02:22:13;;;;;;;0.40;0.30;;;-1.80;99.90;;;;;;5111089;28;20411;-71
2022/01/14 02:27:09;;;;;;;0.40;0.30;;;-1.90;99.90;;;;;;5110571;28;20785;-70
2022/01/14 02:29:35;;;;;;;0.80;0.50;;;-1.90;99.90;;;;;;5111585;28;20372;-70
2022/01/14 02:32:01;;;;;;;0.40;0.30;;;-1.90;99.90;;;;;;5111057;28;20393;-71
2022/01/14 02:34:27;;;;;;;0.80;0.70;;;-1.80;99.90;;;;;;5092586;28;20884;-70
2022/01/14 02:36:53;;;;;;;1.00;1.00;;;-1.80;99.90;;;;;;5111180;28;20483;-70
2022/01/14 02:39:21;;;;;;;0.40;0.20;;;-1.80;99.90;;;;;;5110170;28;20380;-70
2022/01/14 02:41:50;;;;;;;0.40;0.30;;;-1.90;99.90;;;;;;5092946;28;20377;-69
2022/01/14 02:44:23;;;;;;;0.50;0.50;;;-2.00;99.90;;;;;;5118090;27;20389;-70
2022/01/14 02:46:55;;;;;;;0.40;0.30;;;-2.00;99.90;;;;;;5131938;27;20446;-70
2022/01/14 02:49:22;;;;;;;0.40;0.20;;;-2.00;99.90;;;;;;5130778;27;20378;-70
2022/01/14 02:51:48;;;;;;;0.40;0.20;;;-2.00;99.90;;;;;;5131734;27;20383;-69
2022/01/14 02:54:19;;;;;;;0.40;0.20;;;-1.90;99.90;;;;;;5131275;27;20395;-69
2022/01/14 02:56:48;;;;;;;0.40;0.30;;;-1.90;99.90;;;;;;5131112;27;20846;-70
2022/01/14 02:59:18;;;;;;;0.40;0.20;;;-1.90;99.90;;;;;;5131211;28;20847;-70
2022/01/14 03:01:46;;;;;;;2.00;1.80;;;-2.00;99.90;;;;;;5130750;28;20726;-70
2022/01/14 03:04:15;;;;;;;0.40;0.20;;;-1.90;99.90;;;;;;5131270;28;20869;-70
2022/01/14 03:06:42;;;;;;;0.60;0.52;;;-1.90;99.90;;;;;;5130468;28;20443;-70
2022/01/14 03:09:08;;;;;;;0.60;0.50;;;-1.90;99.90;;;;;;5131156;28;20375;-70
2022/01/14 03:11:38;;;;;;;0.40;0.20;;;-1.90;99.90;;;;;;5130633;28;20375;-70
2022/01/14 03:14:04;;;;;;;0.40;0.30;;;-1.80;99.90;;;;;;5131320;28;20398;-70
2022/01/14 03:16:37;;;;;;;0.40;0.40;;;-1.80;99.90;;;;;;5131283;28;20397;-69
2022/01/14 03:19:11;;;;;;;0.40;0.30;;;-1.80;99.90;;;;;;5131415;27;20383;-70
2022/01/14 03:21:40;;;;;;;0.40;0.40;;;-1.90;99.90;;;;;;5135535;27;20385;-69
2022/01/14 03:24:23;;;;;;;1.50;0.90;;;-1.80;99.90;;;;;;5134947;27;20397;-69
2022/01/14 03:26:52;;;;;;;0.50;0.50;;;-1.80;99.90;;;;;;5134633;27;20720;-70
2022/01/14 03:29:19;;;;;;;0.50;0.50;;;-1.90;99.90;;;;;;5135222;27;20462;-70
2022/01/14 03:31:46;;;;;;;0.40;0.20;;;-1.80;99.90;;;;;;5135315;27;20370;-70
2022/01/14 03:34:11;;;;;;;1.20;0.90;;;-1.80;99.90;;;;;;5134624;27;20489;-70
2022/01/14 03:36:37;;;;;;;0.50;0.50;;;-1.70;99.90;;;;;;5135195;27;20394;-70
2022/01/14 03:39:04;;;;;;;0.40;0.20;;;-1.70;99.90;;;;;;5134758;27;20401;-70
2022/01/14 03:41:29;;;;;;;0.80;0.80;;;-1.70;99.90;;;;;;5135127;27;20381;-70
2022/01/14 03:43:55;;;;;;;0.40;0.20;;;-1.60;99.90;;;;;;5129852;27;20380;-71
2022/01/14 03:46:21;;;;;;;0.50;0.50;;;-1.60;99.90;;;;;;5114027;28;20425;-70
2022/01/14 03:48:46;;;;;;;0.40;0.20;;;-1.80;99.90;;;;;;5114280;28;20399;-70
2022/01/14 03:51:12;;;;;;;0.70;0.60;;;-1.90;99.90;;;;;;5113425;28;20425;-70
2022/01/14 03:53:39;;;;;;;0.40;0.20;;;-1.90;99.90;;;;;;5114315;28;20396;-70
2022/01/14 03:56:05;;;;;;;0.40;0.20;;;-1.90;99.90;;;;;;5113952;28;20373;-71
2022/01/14 03:58:31;;;;;;;0.70;0.70;;;-1.90;99.90;;;;;;5095704;28;20493;-70
2022/01/14 04:00:56;;;;;;;0.87;0.87;;;-1.80;99.90;;;;;;5114115;28;20471;-70
2022/01/14 04:03:22;;;;;;;0.40;0.20;;;-1.90;99.90;;;;;;5113140;28;20384;-70
2022/01/14 04:05:48;;;;;;;0.80;0.80;;;-1.80;99.90;;;;;;5095469;28;20420;-70
2022/01/14 04:08:14;;;;;;;0.80;0.60;;;-1.80;99.90;;;;;;5113985;28;20416;-71
2022/01/14 04:10:39;;;;;;;0.47;0.37;;;-1.90;99.90;;;;;;5113611;28;20761;-70
2022/01/14 04:13:13;;;;;;;0.40;0.40;;;-2.00;99.90;;;;;;5113929;28;20402;-70
2022/01/14 04:15:44;;;;;;;0.40;0.30;;;-2.00;99.90;;;;;;5113151;28;20380;-70
2022/01/14 04:18:19;;;;;;;0.40;0.20;;;-2.10;99.90;;;;;;5113740;28;20376;-70
2022/01/14 04:20:47;;;;;;;0.40;0.20;;;-2.10;99.90;;;;;;5112772;28;20501;-70
2022/01/14 04:23:14;;;;;;;0.40;0.30;;;-2.10;99.90;;;;;;5113860;28;20852;-70
2022/01/14 04:25:41;;;;;;;0.40;0.20;;;-2.10;99.90;;;;;;5113014;28;20404;-70
2022/01/14 04:28:08;;;;;;;0.40;0.30;;;-2.10;99.90;;;;;;5113436;28;20840;-70
2022/01/14 04:30:34;;;;;;;0.40;0.25;;;-2.10;99.90;;;;;;5112853;28;20430;-71
2022/01/14 04:33:00;;;;;;;2.20;0.80;;;-2.00;99.90;;;;;;5113937;28;20392;-70
2022/01/14 04:35:26;;;;;;;0.40;0.20;;;-2.10;99.90;;;;;;5113643;28;20456;-70
2022/01/14 04:37:52;;;;;;;0.40;0.20;;;-2.00;99.90;;;;;;5112970;28;20369;-70
2022/01/14 04:40:19;;;;;;;0.40;0.20;;;-2.00;99.90;;;;;;5113829;28;20854;-70
2022/01/14 04:42:44;;;;;;;0.80;0.80;;;-2.10;99.90;;;;;;5112644;28;20852;-71
2022/01/14 04:45:15;;;;;;;0.40;0.28;;;-2.10;99.90;;;;;;5129115;27;20382;-70
2022/01/14 04:47:46;;;;;;;0.40;0.20;;;-2.10;99.90;;;;;;5133687;27;20950;-70
2022/01/14 04:50:17;;;;;;;0.45;0.35;;;-2.20;99.90;;;;;;5134245;27;20374;-70
2022/01/14 04:52:45;;;;;;;0.40;0.20;;;-2.10;99.90;;;;;;5134006;27;20451;-70
2022/01/14 04:55:12;;;;;;;0.40;0.40;;;-2.10;99.90;;;;;;5133112;27;20727;-70
2022/01/14 04:57:39;;;;;;;0.40;0.20;;;-2.10;99.90;;;;;;5133632;27;20746;-70
2022/01/14 05:00:08;;;;;;;0.40;0.25;;;-2.10;99.90;;;;;;5132910;27;20435;-70
2022/01/14 05:02:34;;;;;;;0.40;0.20;;;-2.10;99.90;;;;;;5133768;27;20410;-70
2022/01/14 05:05:01;;;;;;;0.50;0.40;;;-2.10;99.90;;;;;;5132721;27;20390;-71
2022/01/14 05:07:27;;;;;;;0.50;0.50;;;-2.10;99.90;;;;;;5133013;27;20398;-70
2022/01/14 05:10:09;;;;;;;0.40;0.30;;;-2.10;99.90;;;;;;5133689;27;20880;-70
2022/01/14 05:12:37;;;;;;;0.40;0.40;;;-2.10;99.90;;;;;;5133747;27;20393;-70
2022/01/14 05:15:04;;;;;;;0.40;0.20;;;-2.20;99.90;;;;;;5133567;27;20459;-70
2022/01/14 05:17:30;;;;;;;1.30;0.70;;;-2.10;99.90;;;;;;5133097;27;20490;-70
2022/01/14 05:19:58;;;;;;;0.40;0.20;;;-2.20;99.90;;;;;;5133266;27;20367;-70
2022/01/14 05:22:24;;;;;;;0.40;0.30;;;-2.10;99.90;;;;;;5132252;27;20412;-70
2022/01/14 05:24:50;;;;;;;0.40;0.20;;;-2.10;99.90;;;;;;5133150;27;20371;-70
2022/01/14 05:27:16;;;;;;;0.40;0.30;;;-2.10;99.90;;;;;;5114287;27;20366;-71
2022/01/14 05:29:42;;;;;;;0.40;0.30;;;-2.10;99.90;;;;;;5133041;27;20820;-70
2022/01/14 05:32:12;;;;;;;0.40;0.20;;;-2.10;99.90;;;;;;5133285;27;20414;-70
2022/01/14 05:34:39;;;;;;;0.40;0.20;;;-2.10;99.90;;;;;;5132434;27;20465;-70
2022/01/14 05:37:06;;;;;;;0.40;0.20;;;-2.00;99.90;;;;;;5133216;27;20417;-70
2022/01/14 05:39:33;;;;;;;0.40;0.20;;;-2.00;99.90;;;;;;5132606;27;20371;-70
2022/01/14 05:42:00;;;;;;;0.40;0.30;;;-2.10;99.90;;;;;;5132998;27;20378;-70
2022/01/14 05:44:27;;;;;;;0.40;0.20;;;-2.10;99.90;;;;;;5123206;27;20395;-72
2022/01/14 05:46:54;;;;;;;1.00;0.80;;;-2.00;99.90;;;;;;5112351;28;20376;-70
2022/01/14 05:49:20;;;;;;;0.40;0.20;;;-2.10;99.90;;;;;;5112449;28;20387;-70
2022/01/14 05:51:46;;;;;;;0.40;0.30;;;-2.10;99.90;;;;;;5111553;28;20376;-70
2022/01/14 05:54:13;;;;;;;0.40;0.20;;;-2.00;99.90;;;;;;5112363;28;20741;-70
2022/01/14 05:56:38;;;;;;;0.40;0.30;;;-2.00;99.90;;;;;;5111187;28;20372;-70
2022/01/14 05:59:04;;;;;;;0.87;0.43;;;-2.00;99.90;;;;;;5093842;28;20376;-70
2022/01/14 06:01:30;;;;;;;0.40;0.30;;;-1.90;99.90;;;;;;5112267;28;20402;-70
2022/01/14 06:04:01;;;;;;;2.00;0.80;;;-1.90;99.90;;;;;;5093300;28;20380;-70
2022/01/14 06:06:27;;;;;;;1.10;1.10;;;-1.80;99.90;;;;;;5112093;28;20407;-70
2022/01/14 06:08:52;;;;;;;0.50;0.50;;;-1.80;99.90;;;;;;5111850;28;20387;-70
2022/01/14 06:11:19;;;;;;;0.40;0.40;;;-1.80;99.90;;;;;;5112347;28;20380;-70
2022/01/14 06:13:45;;;;;;;0.40;0.30;;;-1.80;99.90;;;;;;5111327;28;20450;-71
2022/01/14 06:16:10;;;;;;;0.40;0.20;;;-1.80;99.90;;;;;;5111008;28;20409;-70
2022/01/14 06:18:36;;;;;;;0.50;0.50;;;-1.80;99.90;;;;;;5111805;28;20912;-70
2022/01/14 06:21:03;;;;;;;0.40;0.20;;;-1.90;99.90;;;;;;5110969;28;20372;-70
2022/01/14 06:23:29;;;;;;;0.60;0.60;;;-1.90;99.90;;;;;;5111641;28;20390;-70
2022/01/14 06:25:55;;;;;;;1.00;0.60;;;-1.90;99.90;;;;;;5110807;28;20389;-71
2022/01/14 06:28:21;;;;;;;0.40;0.28;;;-1.80;99.90;;;;;;5111068;28;20817;-70
2022/01/14 06:30:46;;;;;;;0.40;0.20;;;-1.90;99.90;;;;;;5113738;27;20371;-70
2022/01/14 06:33:12;;;;;;;0.50;0.50;;;-1.90;99.90;;;;;;5131062;27;20464;-70
2022/01/14 06:35:38;;;;;;;0.40;0.40;;;-1.90;99.90;;;;;;5131997;27;20387;-70
2022/01/14 06:38:04;;;;;;;0.40;0.30;;;-1.90;99.90;;;;;;5131630;27;20375;-71
2022/01/14 06:40:31;;;;;;;1.10;1.10;;;-1.80;99.90;;;;;;5113822;27;20780;-70
2022/01/14 06:42:56;;;;;;;0.40;0.30;;;-1.90;99.90;;;;;;5131968;27;20387;-70
2022/01/14 06:45:23;;;;;;;0.40;0.20;;;-1.80;99.90;;;;;;5131067;27;20722;-70
2022/01/14 06:47:52;;;;;;;0.40;0.20;;;-1.80;99.90;;;;;;5131778;27;20461;-70
2022/01/14 06:50:18;;;;;;;0.40;0.20;;;-1.80;99.90;;;;;;5112550;27;20375;-70
2022/01/14 06:52:44;;;;;;;0.40;0.30;;;-1.80;99.90;;;;;;5131637;27;20383;-70
2022/01/14 06:55:11;;;;;;;0.40;0.20;;;-1.80;99.90;;;;;;5130865;27;20463;-70
2022/01/14 06:57:37;;;;;;;0.40;0.20;;;-1.80;99.90;;;;;;5131353;27;20382;-70
2022/01/14 07:00:09;;;;;;;0.40;0.20;;;-1.70;99.90;;;;;;5131757;28;20900;-70
2022/01/14 07:02:34;;;;;;;0.40;0.20;;;-1.60;99.90;;;;;;5112515;28;21141;-70
2022/01/14 07:05:00;;;;;;;0.40;0.20;;;-1.60;99.90;;;;;;5131569;28;20375;-70
2022/01/14 07:07:25;;;;;;;0.40;0.20;;;-1.50;99.90;;;;;;5131006;28;20391;-70
2022/01/14 07:09:57;;;;;;;0.47;0.47;;;-1.50;99.90;;;;;;5113119;28;20731;-70
2022/01/14 07:12:40;;;;;;;0.40;0.20;;;-1.50;99.90;;;;;;5131083;28;20367;-71
2022/01/14 07:15:10;;;;;;;0.40;0.30;;;-1.60;99.90;;;;;;5108523;28;20456;-70
2022/01/14 07:17:37;;;;;;;0.40;0.20;;;-1.70;99.90;;;;;;5117306;28;20380;-69
2022/01/14 07:20:10;;;;;;;0.40;0.20;;;-1.60;99.90;;;;;;5113619;28;20469;-70
2022/01/14 07:22:36;;;;;;;3.30;1.20;;;-1.50;99.90;;;;;;5092515;28;20388;-70
2022/01/14 07:25:03;;;;;;;0.40;0.20;;;-1.60;99.90;;;;;;5112935;28;20400;-70
2022/01/14 07:27:29;;;;;;;0.40;0.30;;;-1.60;99.90;;;;;;5115637;28;20384;-68
2022/01/14 07:29:55;;;;;;;0.40;0.20;;;-1.70;99.90;;;;;;5109054;28;20389;-68
2022/01/14 07:32:22;;;;;;;0.40;0.30;;;-1.70;99.90;;;;;;5112072;28;20737;-69
2022/01/14 07:34:48;;;;;;;0.40;0.20;;;-1.80;99.90;;;;;;5109222;28;20404;-69
2022/01/14 07:37:15;;;;;;;0.40;0.20;;;-1.90;99.90;;;;;;5091874;28;20533;-69
2022/01/14 07:39:41;;;;;;;0.40;0.35;;;-2.00;99.90;;;;;;5109396;28;20714;-70
2022/01/14 07:42:08;;;;;;;0.40;0.20;;;-1.90;99.90;;;;;;5111149;28;20372;-72
2022/01/14 07:44:34;;;;;;;2.40;1.40;;;-1.90;99.90;;;;;;5110166;28;20384;-70
2022/01/14 07:47:00;;;;;;;0.40;0.25;;;-1.80;99.90;;;;;;5108804;28;20380;-70
2022/01/14 07:49:26;;;;;;;0.50;0.50;;;-1.80;99.90;;;;;;5114085;28;20399;-70
2022/01/14 07:51:52;;;;;;;0.80;0.70;;;-1.80;99.90;;;;;;5108795;28;20430;-70
2022/01/14 07:54:18;;;;;;;0.40;0.40;;;-1.80;99.90;;;;;;5107632;28;20404;-70
2022/01/14 07:56:50;;;;;;;0.40;0.20;;;-1.70;99.90;;;;;;5092415;28;20399;-69
2022/01/14 07:59:19;;;;;;;0.45;0.35;;;-1.70;99.90;;;;;;5109146;28;20388;-70
2022/01/14 08:01:46;;;;;;;0.40;0.20;;;-1.70;99.90;;;;;;5108627;28;20381;-70
2022/01/14 08:04:17;;;;;;;0.40;0.20;;;-1.70;99.90;;;;;;5108111;28;20396;-69
2022/01/14 08:06:48;;;;;;;0.40;0.35;;;-1.60;99.90;;;;;;5112070;28;20828;-70
2022/01/14 08:09:15;;;;;;;0.40;0.20;;;-1.60;99.90;;;;;;5115583;27;20467;-69
2022/01/14 08:11:42;;;;;;;0.40;0.20;;;-1.60;99.90;;;;;;5113561;28;20376;-70
2022/01/14 08:14:08;;;;;;;0.40;0.30;;;-1.50;99.90;;;;;;5115490;27;20404;-69
2022/01/14 08:16:34;;;;;;;0.40;0.40;;;-1.50;99.90;;;;;;5113213;27;20384;-70
2022/01/14 08:18:59;;;;;;;0.40;0.20;;;-1.40;99.90;;;;;;5112590;28;20380;-70
2022/01/14 08:21:25;;;;;;;0.40;0.30;;;-1.30;99.90;;;;;;5094652;28;20389;-70
2022/01/14 08:23:51;;;;;;;0.40;0.20;;;-1.30;99.90;;;;;;5112272;28;20875;-70
2022/01/14 08:26:18;;;;;;;0.40;0.35;;;-1.30;99.90;;;;;;5111846;28;20460;-69
2022/01/14 08:28:44;;;;;;;0.40;0.20;;;-1.20;99.90;;;;;;5113075;28;20380;-71
2022/01/14 08:31:10;;;;;;;0.43;0.25;;;-1.10;99.90;;;;;;5112285;28;20437;-70
2022/01/14 08:33:36;;;;;;;0.60;0.50;;;-1.00;99.90;;;;;;5116762;27;20825;-69
2022/01/14 08:36:02;;;;;;;0.40;0.30;;;-1.00;99.90;;;;;;5112303;28;20475;-72
2022/01/14 08:38:28;;;;;;;0.40;0.30;;;-0.90;99.90;;;;;;5112463;27;20377;-70
2022/01/14 08:40:54;;;;;;;0.90;0.70;;;-0.70;99.90;;;;;;5112439;27;20387;-69
2022/01/14 08:43:20;;;;;;;0.40;0.20;;;-0.70;99.90;;;;;;5111116;27;20384;-70
2022/01/14 08:45:46;;;;;;;0.40;0.20;;;-0.60;99.90;;;;;;5112150;27;20380;-70
2022/01/14 08:48:12;;;;;;;0.40;0.20;;;-0.50;99.90;;;;;;5111593;27;20383;-70
2022/01/14 08:50:39;;;;;;;0.40;0.22;;;-0.50;99.90;;;;;;5112438;28;20420;-70
2022/01/14 08:53:08;;;;;;;0.40;0.30;;;-0.30;99.90;;;;;;5111820;28;20364;-70
2022/01/14 08:55:35;;;;;;;0.40;0.20;;;-0.20;99.90;;;;;;5111658;28;20408;-71
2022/01/14 08:58:03;;;;;;;0.40;0.30;;;-0.20;99.90;;;;;;5093582;28;20753;-70
2022/01/14 09:00:29;;;;;;;0.40;0.20;;;-0.20;99.90;;;;;;5111653;27;20425;-72
2022/01/14 09:02:56;;;;;;;0.40;0.20;;;-0.10;99.90;;;;;;5093905;28;20423;-72
2022/01/14 09:05:23;;;;;;;0.40;0.30;;;0.00;99.90;;;;;;5110825;28;20384;-73
2022/01/14 09:07:50;;;;;;;0.40;0.20;;;0.00;99.90;;;;;;5112684;27;20380;-75
2022/01/14 09:10:16;;;;;;;0.50;0.50;;;0.10;99.90;;;;;;5112373;28;20394;-74
2022/01/14 09:12:42;;;;;;;0.40;0.20;;;0.20;99.90;;;;;;5110681;27;20381;-72
2022/01/14 09:15:09;;;;;;;1.30;0.60;;;0.20;99.90;;;;;;5093545;28;20408;-71
2022/01/14 09:17:35;;;;;;;0.40;0.30;;;0.30;99.90;;;;;;5110353;27;20424;-71
2022/01/14 09:20:03;;;;;;;0.40;0.30;;;0.50;99.90;;;;;;5111885;28;20381;-71
2022/01/14 09:22:31;;;;;;;0.40;0.40;;;0.60;99.90;;;;;;5110741;27;20386;-71
2022/01/14 09:24:59;;;;;;;0.40;0.25;;;0.70;99.90;;;;;;5111635;28;20412;-71
2022/01/14 09:27:26;;;;;;;0.40;0.20;;;0.70;99.90;;;;;;5112761;28;20841;-72
2022/01/14 09:29:54;;;;;;;0.40;0.20;;;0.80;99.90;;;;;;5112388;28;20379;-71
2022/01/14 09:32:20;;;;;;;0.40;0.20;;;0.90;99.90;;;;;;5112693;28;20392;-71
2022/01/14 09:34:46;;;;;;;0.40;0.20;;;0.90;99.90;;;;;;5111757;28;20428;-71
2022/01/14 09:37:12;;;;;;;0.40;0.30;;;1.10;99.90;;;;;;5113039;28;20770;-70
2022/01/14 09:39:43;;;;;;;0.40;0.30;;;1.10;99.90;;;;;;5111849;28;20379;-70
2022/01/14 09:42:09;;;;;;;0.40;0.30;;;1.10;99.90;;;;;;5112397;28;20701;-70
2022/01/14 09:44:35;;;;;;;0.40;0.23;;;1.20;99.90;;;;;;5122394;27;20516;-72
2022/01/14 09:47:02;;;;;;;0.40;0.20;;;1.30;99.90;;;;;;5114482;27;20749;-70
2022/01/14 09:49:28;;;;;;;0.50;0.40;;;1.40;99.90;;;;;;5132736;27;20378;-70
2022/01/14 09:51:54;;;;;;;0.40;0.20;;;1.60;99.90;;;;;;5131761;27;20378;-70
2022/01/14 09:54:20;;;;;;;0.40;0.20;;;1.70;99.90;;;;;;5114695;27;20489;-71
2022/01/14 09:56:46;;;;;;;1.30;1.20;;;1.90;99.90;;;;;;5111345;28;20721;-71
2022/01/14 09:59:12;;;;;;;0.40;0.20;;;2.10;99.90;;;;;;5112371;28;20373;-72
2022/01/14 10:01:44;;;;;;;0.40;0.20;;;2.30;99.90;;;;;;5112213;28;20376;-71
2022/01/14 10:04:19;;;;;;;1.00;1.00;;;2.40;99.90;;;;;;5112232;28;20495;-72
2022/01/14 10:06:51;;;;;;;0.40;0.22;;;2.30;99.90;;;;;;5110866;28;20443;-73
2022/01/14 10:09:33;;;;;;;0.40;0.20;;;2.30;99.90;;;;;;5111956;28;20500;-71
2022/01/14 10:11:59;;;;;;;0.40;0.30;;;2.20;99.90;;;;;;5111061;28;20413;-71
2022/01/14 10:14:25;;;;;;;0.80;0.80;;;2.20;99.90;;;;;;5111808;28;20877;-72
2022/01/14 10:16:56;;;;;;;0.40;0.30;;;2.30;99.90;;;;;;5111095;28;20377;-73
2022/01/14 10:19:24;;;;;;;0.40;0.20;;;2.30;99.90;;;;;;5111473;28;20435;-73
2022/01/14 10:21:50;;;;;;;0.80;0.80;;;2.30;99.90;;;;;;5111167;28;20392;-74
2022/01/14 10:24:18;;;;;;;0.40;0.20;;;2.40;99.90;;;;;;5111724;28;20450;-72
2022/01/14 10:27:03;;;;;;;0.40;0.30;;;2.60;99.90;;;;;;5111682;28;20396;-72
2022/01/14 10:29:38;;;;;;;0.40;0.20;;;2.80;99.90;;;;;;5111527;28;20416;-72
2022/01/14 10:32:07;;;;;;;0.40;0.20;;;2.70;99.90;;;;;;5110791;28;20450;-72
2022/01/14 10:34:34;;;;;;;0.40;0.20;;;2.60;99.90;;;;;;5111871;28;20404;-72
2022/01/14 10:37:15;;;;;;;0.70;0.70;;;2.60;99.90;;;;;;5110894;28;20423;-73
2022/01/14 10:39:49;;;;;;;0.40;0.40;;;2.60;99.90;;;;;;5093325;28;20852;-73
2022/01/14 10:42:29;;;;;;;0.50;0.50;;;2.60;99.90;;;;;;5110559;28;20460;-71
2022/01/14 10:45:09;;;;;;;0.90;0.70;;;2.50;99.90;;;;;;5124885;27;20730;-73
2022/01/14 10:47:35;;;;;;;0.40;0.40;;;2.70;99.90;;;;;;5131937;27;20488;-72
2022/01/14 10:50:01;;;;;;;0.40;0.22;;;2.80;99.90;;;;;;5131141;27;20367;-75
2022/01/14 10:52:27;;;;;;;0.50;0.30;;;3.00;99.90;;;;;;5131454;27;21004;-73
2022/01/14 10:54:57;;;;;;;0.40;0.30;;;2.80;99.90;;;;;;5124172;27;20408;-74
2022/01/14 10:57:29;;;;;;;0.80;0.80;;;2.80;99.90;;;;;;5119238;27;21032;-73
2022/01/14 10:59:58;;;;;;;0.40;0.30;;;2.80;99.90;;;;;;5116284;27;20502;-73
2022/01/14 11:02:38;;;;;;;1.58;1.08;;;3.00;99.90;;;;;;5115623;27;20422;-73
2022/01/14 11:05:05;;;;;;;1.10;0.70;;;3.20;99.90;;;;;;5113365;28;20399;-75
2022/01/14 11:07:31;;;;;;;0.80;0.80;;;3.30;99.90;;;;;;5110693;28;20411;-73
2022/01/14 11:09:59;;;;;;;0.60;0.60;;;3.30;99.90;;;;;;5111203;28;20375;-73
2022/01/14 11:12:25;;;;;;;0.40;0.30;;;3.50;99.90;;;;;;5111454;28;20463;-73
2022/01/14 11:14:51;;;;;;;0.40;0.30;;;3.50;99.90;;;;;;5111239;28;20396;-72
2022/01/14 11:17:17;;;;;;;0.40;0.40;;;3.60;99.90;;;;;;5109886;28;20502;-73
2022/01/14 11:19:47;;;;;;;0.40;0.20;;;3.60;99.90;;;;;;5112071;28;20382;-74
2022/01/14 11:25:01;;;;;;;1.20;0.50;;;4.10;99.90;;;;;;5124868;28;20405;-73
2022/01/14 11:27:27;;;;;;;0.70;0.70;;;4.40;99.90;;;;;;5112267;28;20387;-73
2022/01/14 11:29:58;;;;;;;0.60;0.60;;;5.00;99.50;;;;;;5129574;28;20378;-73
2022/01/14 11:32:27;;;;;;;0.60;0.60;;;5.20;97.80;;;;;;5110262;28;20384;-73
2022/01/14 11:34:55;;;;;;;0.40;0.20;;;5.60;96.10;;;;;;5110811;28;20503;-73
2022/01/14 11:37:34;;;;;;;0.40;0.20;;;6.10;95.10;;;;;;5109687;28;20401;-74
2022/01/14 11:40:09;;;;;;;0.40;0.20;;;6.50;94.20;;;;;;5110909;28;20395;-73
2022/01/14 11:42:49;;;;;;;0.40;0.30;;;6.30;93.00;;;;;;5114020;28;20458;-73
2022/01/14 11:45:17;;;;;;;0.40;0.30;;;6.30;93.20;;;;;;5114673;28;20388;-73
2022/01/14 11:47:45;;;;;;;0.40;0.20;;;6.20;92.50;;;;;;5121208;27;20374;-73
2022/01/14 11:50:19;;;;;;;0.40;0.30;;;6.70;92.40;;;;;;5135038;27;20389;-73
2022/01/14 11:52:46;;;;;;;0.40;0.20;;;6.40;92.20;;;;;;5134169;27;20748;-73
2022/01/14 11:55:21;;;;;;;0.80;0.65;;;6.80;91.90;;;;;;5135089;27;20402;-73
2022/01/14 11:58:02;;;;;;;0.40;0.40;;;7.00;92.10;;;;;;5134008;27;20428;-73
2022/01/14 12:02:55;;;;;;;0.50;0.40;;;7.40;91.80;;;;;;5113602;28;20377;-73
2022/01/14 12:05:26;;;;;;;0.60;0.50;;;7.20;91.10;;;;;;5125262;27;20439;-73
2022/01/14 12:08:12;;;;;;;0.57;0.57;;;7.00;92.30;;;;;;5119933;27;20380;-73
2022/01/14 12:10:42;;;;;;;0.40;0.30;;;7.80;91.10;;;;;;5130426;27;20381;-75
2022/01/14 12:13:24;;;;;;;0.40;0.30;;;7.80;90.70;;;;;;5122011;27;20379;-72
2022/01/14 12:15:58;;;;;;;0.40;0.30;;;7.60;89.70;;;;;;5119906;27;20389;-73
2022/01/14 12:18:57;;;;;;;0.40;0.20;;;7.30;90.60;;;;;;5130799;27;20382;-73
2022/01/14 12:21:48;;;;;;;0.40;0.30;;;7.60;90.50;;;;;;5123735;27;20458;-73
2022/01/14 12:24:27;;;;;;;0.50;0.47;;;8.00;90.50;;;;;;5117192;27;20384;-73
2022/01/14 12:27:03;;;;;;;0.40;0.20;;;7.70;90.70;;;;;;5109025;27;20411;-73
2022/01/14 12:29:36;;;;;;;0.50;0.50;;;7.80;89.50;;;;;;5113705;28;20376;-71
2022/01/14 12:32:09;;;;;;;1.00;0.90;;;7.60;90.10;;;;;;5098679;27;20400;-71
2022/01/14 12:34:57;;;;;;;0.40;0.20;;;8.30;90.40;;;;;;5112532;27;20409;-71
2022/01/14 12:37:55;;;;;;;1.48;1.20;;;8.20;89.00;;;;;;5121580;27;20487;-70
2022/01/14 12:40:22;;;;;;;1.88;1.45;;;7.90;90.20;;;;;;5097408;28;20388;-71
2022/01/14 12:42:58;;;;;;;0.93;0.85;;;6.70;90.90;;;;;;5113255;28;20884;-71
2022/01/14 12:45:30;;;;;;;0.40;0.20;;;6.50;93.00;;;;;;5131064;27;20431;-71
2022/01/14 12:48:40;;;;;;;0.83;0.83;;;6.40;93.50;;;;;;5133136;27;20473;-73
2022/01/14 12:51:18;;;;;;;0.70;0.70;;;5.50;96.10;;;;;;5133258;27;20394;-71
2022/01/14 12:53:47;;;;;;;0.43;0.43;;;5.60;96.80;;;;;;5132823;27;20438;-72
2022/01/14 12:56:16;;;;;;;1.92;1.73;;;5.40;97.40;;;;;;5133034;27;20408;-72
2022/01/14 12:58:58;;;;;;;0.70;0.50;;;5.40;97.40;;;;;;5133859;27;20765;-73
2022/01/14 13:01:29;;;;;;;0.40;0.30;;;5.10;97.90;;;;;;5115044;27;20399;-72
2022/01/14 13:04:00;;;;;;;0.50;0.50;;;5.10;98.20;;;;;;5133600;27;20374;-72
2022/01/14 13:06:39;;;;;;;0.40;0.20;;;5.10;98.00;;;;;;5133021;27;20382;-73
2022/01/14 13:09:05;;;;;;;0.80;0.80;;;5.20;98.20;;;;;;5114403;27;20469;-76
2022/01/14 13:11:44;;;;;;;0.80;0.80;;;5.20;98.20;;;;;;5133740;27;20918;-73
2022/01/14 13:14:15;;;;;;;0.40;0.30;;;5.30;98.30;;;;;;5132719;27;20464;-76
2022/01/14 13:16:47;;;;;;;0.40;0.28;;;5.30;98.10;;;;;;5133560;27;20409;-73